createdAt,value
2022-11-29T00:02:07.070Z,14.60
2022-11-29T00:04:33.731Z,14.93
2022-11-29T00:07:00.144Z,14.20
2022-11-29T00:09:27.430Z,14.32
2022-11-29T00:12:12.233Z,13.30
2022-11-29T00:14:39.773Z,14.52
2022-11-29T00:17:06.593Z,14.20
2022-11-29T00:19:35.600Z,14.90
2022-11-29T00:22:02.652Z,14.48
2022-11-29T00:24:31.578Z,14.23
2022-11-29T00:26:58.309Z,13.88
2022-11-29T00:29:25.483Z,15.00
2022-11-29T00:31:51.892Z,15.05
2022-11-29T00:34:20.546Z,13.68
2022-11-29T00:36:47.248Z,21.13
2022-11-29T00:39:13.792Z,14.45
2022-11-29T00:41:40.411Z,15.07
2022-11-29T00:44:06.923Z,13.98
2022-11-29T00:46:33.717Z,13.75
2022-11-29T00:49:00.211Z,13.40
2022-11-29T00:51:26.718Z,14.32
2022-11-29T00:53:53.135Z,14.57
2022-11-29T00:56:19.668Z,13.68
2022-11-29T00:58:46.252Z,13.27
2022-11-29T01:01:12.735Z,13.97
2022-11-29T01:03:39.412Z,14.95
2022-11-29T01:06:09.897Z,15.35
2022-11-29T01:08:42.242Z,14.52
2022-11-29T01:11:13.905Z,14.68
2022-11-29T01:13:41.157Z,13.50
2022-11-29T01:16:08.405Z,14.02
2022-11-29T01:18:35.465Z,16.58
2022-11-29T01:21:08.986Z,18.15
2022-11-29T01:23:36.052Z,14.35
2022-11-29T01:26:06.177Z,15.23
2022-11-29T01:28:34.032Z,16.75
2022-11-29T01:31:09.046Z,23.08
2022-11-29T01:33:36.234Z,15.70
2022-11-29T01:36:04.486Z,13.52
2022-11-29T01:38:30.929Z,14.50
2022-11-29T01:41:09.512Z,13.55
2022-11-29T01:44:13.094Z,13.27
2022-11-29T01:46:45.454Z,12.55
2022-11-29T01:49:16.488Z,11.85
2022-11-29T01:51:52.415Z,12.30
2022-11-29T01:54:20.152Z,11.98
2022-11-29T01:56:50.239Z,13.30
2022-11-29T01:59:20.722Z,11.93
2022-11-29T02:01:47.680Z,12.00
2022-11-29T02:04:15.302Z,13.07
2022-11-29T02:06:42.862Z,15.68
2022-11-29T02:09:19.606Z,13.63
2022-11-29T02:11:57.700Z,13.80
2022-11-29T02:14:38.263Z,14.35
2022-11-29T02:17:36.964Z,12.00
2022-11-29T02:20:51.402Z,12.52
2022-11-29T02:23:50.924Z,12.05
2022-11-29T02:26:39.171Z,11.73
2022-11-29T02:29:36.721Z,12.35
2022-11-29T02:32:20.572Z,14.93
2022-11-29T02:35:02.131Z,12.80
2022-11-29T02:37:38.510Z,11.82
2022-11-29T02:40:24.875Z,11.75
2022-11-29T02:43:06.513Z,11.15
2022-11-29T02:46:03.216Z,10.50
2022-11-29T02:48:44.680Z,11.10
2022-11-29T02:51:22.499Z,12.25
2022-11-29T02:53:55.938Z,11.25
2022-11-29T02:56:52.185Z,11.20
2022-11-29T02:59:32.594Z,11.10
2022-11-29T03:02:14.565Z,11.40
2022-11-29T03:04:50.089Z,10.80
2022-11-29T03:07:37.899Z,11.80
2022-11-29T03:10:36.392Z,11.00
2022-11-29T03:13:08.470Z,10.57
2022-11-29T03:15:50.748Z,11.05
2022-11-29T03:18:34.724Z,10.75
2022-11-29T03:21:34.543Z,10.23
2022-11-29T03:24:13.740Z,11.13
2022-11-29T03:26:45.574Z,11.17
2022-11-29T03:29:23.019Z,11.65
2022-11-29T03:31:49.617Z,11.60
2022-11-29T03:34:31.820Z,12.35
2022-11-29T03:37:06.993Z,12.18
2022-11-29T03:39:38.132Z,12.43
2022-11-29T03:42:11.024Z,12.38
2022-11-29T03:44:50.147Z,11.75
2022-11-29T03:47:23.657Z,11.40
2022-11-29T03:50:01.550Z,12.32
2022-11-29T03:52:43.157Z,11.67
2022-11-29T03:55:21.774Z,10.85
2022-11-29T03:58:00.295Z,11.25
2022-11-29T04:00:34.027Z,11.65
2022-11-29T04:03:37.742Z,11.93
2022-11-29T04:06:19.502Z,11.37
2022-11-29T04:08:57.326Z,10.98
2022-11-29T04:11:35.690Z,10.55
2022-11-29T04:14:08.055Z,11.85
2022-11-29T04:16:54.481Z,11.45
2022-11-29T04:19:58.284Z,10.90
2022-11-29T04:22:54.523Z,11.40
2022-11-29T04:25:39.759Z,11.40
2022-11-29T04:28:12.140Z,11.50
2022-11-29T04:31:14.899Z,10.50
2022-11-29T04:33:53.504Z,9.70
2022-11-29T04:36:48.735Z,9.90
2022-11-29T04:39:26.068Z,10.82
2022-11-29T04:42:20.098Z,9.93
2022-11-29T04:44:55.760Z,10.38
2022-11-29T04:48:02.910Z,10.10
2022-11-29T04:50:39.301Z,11.93
2022-11-29T04:53:40.943Z,10.80
2022-11-29T04:56:21.441Z,12.15
2022-11-29T04:58:59.190Z,11.52
2022-11-29T05:01:53.816Z,10.83
2022-11-29T05:04:43.737Z,10.88
2022-11-29T05:07:39.515Z,11.10
2022-11-29T05:10:05.930Z,11.27
2022-11-29T05:12:53.530Z,10.85
2022-11-29T05:15:56.851Z,10.53
2022-11-29T05:18:45.120Z,9.77
2022-11-29T05:21:27.343Z,10.15
2022-11-29T05:23:53.756Z,9.90
2022-11-29T05:26:32.375Z,10.85
2022-11-29T05:29:05.696Z,10.23
2022-11-29T05:31:41.458Z,10.68
2022-11-29T05:34:34.856Z,10.60
2022-11-29T05:37:35.245Z,10.25
2022-11-29T05:40:39.388Z,13.07
2022-11-29T05:43:34.703Z,10.30
2022-11-29T05:46:19.588Z,10.68
2022-11-29T05:49:17.888Z,10.68
2022-11-29T05:52:15.047Z,11.32
2022-11-29T05:54:58.994Z,11.07
2022-11-29T05:57:57.537Z,11.53
2022-11-29T06:00:26.856Z,10.60
2022-11-29T06:03:03.710Z,11.32
2022-11-29T06:05:42.781Z,11.55
2022-11-29T06:08:31.625Z,12.32
2022-11-29T06:11:21.723Z,11.67
2022-11-29T06:14:20.589Z,11.40
2022-11-29T06:17:11.789Z,11.57
2022-11-29T06:20:11.057Z,10.75
2022-11-29T06:22:48.903Z,10.90
2022-11-29T06:25:48.418Z,11.03
2022-11-29T06:28:49.902Z,10.95
2022-11-29T06:31:27.012Z,10.50
2022-11-29T06:34:00.881Z,10.70
2022-11-29T06:36:36.203Z,10.75
2022-11-29T06:39:02.959Z,10.77
2022-11-29T06:41:29.705Z,10.30
2022-11-29T06:43:56.669Z,10.13
2022-11-29T06:46:26.655Z,9.95
2022-11-29T06:49:19.300Z,10.52
2022-11-29T06:52:12.192Z,10.93
2022-11-29T06:55:01.334Z,11.10
2022-11-29T06:57:53.844Z,10.52
2022-11-29T07:00:46.572Z,10.80
2022-11-29T07:03:18.918Z,10.73
2022-11-29T07:05:46.521Z,11.27
2022-11-29T07:08:19.021Z,11.15
2022-11-29T07:10:49.661Z,11.00
2022-11-29T07:13:17.872Z,11.23
2022-11-29T07:16:06.765Z,11.23
2022-11-29T07:18:44.643Z,10.53
2022-11-29T07:21:32.545Z,10.43
2022-11-29T07:24:37.336Z,11.43
2022-11-29T07:27:26.494Z,10.98
2022-11-29T07:30:09.604Z,11.65
2022-11-29T07:33:05.529Z,11.47
2022-11-29T07:35:46.198Z,11.13
2022-11-29T07:38:27.061Z,11.40
2022-11-29T07:41:26.979Z,29.92
2022-11-29T07:44:05.326Z,12.25
2022-11-29T07:46:32.130Z,11.23
2022-11-29T07:48:58.553Z,11.95
2022-11-29T07:51:25.731Z,11.43
2022-11-29T07:53:52.218Z,11.32
2022-11-29T07:56:18.703Z,11.82
2022-11-29T07:58:45.311Z,12.23
2022-11-29T08:01:11.901Z,12.80
2022-11-29T08:03:38.473Z,11.85
2022-11-29T08:06:05.046Z,13.10
2022-11-29T08:08:31.579Z,13.80
2022-11-29T08:10:58.012Z,14.97
2022-11-29T08:13:24.596Z,14.20
2022-11-29T08:15:51.062Z,13.02
2022-11-29T08:18:17.771Z,14.43
2022-11-29T08:20:46.250Z,15.65
2022-11-29T08:23:13.765Z,15.57
2022-11-29T08:25:40.316Z,16.25
2022-11-29T08:28:06.877Z,15.82
2022-11-29T08:30:33.560Z,15.52
2022-11-29T08:33:00.234Z,15.57
2022-11-29T08:35:26.764Z,15.30
2022-11-29T08:37:54.052Z,16.25
2022-11-29T08:40:20.429Z,15.48
2022-11-29T08:42:46.982Z,15.43
2022-11-29T08:45:14.738Z,15.48
2022-11-29T08:47:42.328Z,14.13
2022-11-29T08:50:15.824Z,15.65
2022-11-29T08:53:06.508Z,14.82
2022-11-29T08:55:39.974Z,13.15
2022-11-29T08:58:08.950Z,14.23
2022-11-29T09:00:36.788Z,14.17
2022-11-29T09:03:23.425Z,13.77
2022-11-29T09:05:50.296Z,12.63
2022-11-29T09:08:16.973Z,14.57
2022-11-29T09:10:43.786Z,13.85
2022-11-29T09:13:11.074Z,12.87
2022-11-29T09:15:39.241Z,12.70
2022-11-29T09:18:05.994Z,12.32
2022-11-29T09:20:33.300Z,13.40
2022-11-29T09:23:00.559Z,12.82
2022-11-29T09:25:27.652Z,13.30
2022-11-29T09:27:54.493Z,13.02
2022-11-29T09:30:23.777Z,12.40
2022-11-29T09:32:50.521Z,11.90
2022-11-29T09:35:17.565Z,12.82
2022-11-29T09:37:44.102Z,11.40
2022-11-29T09:40:37.427Z,10.98
2022-11-29T09:43:23.659Z,10.75
2022-11-29T09:46:03.076Z,11.70
2022-11-29T09:48:44.735Z,12.18
2022-11-29T09:51:28.007Z,11.47
2022-11-29T09:54:46.050Z,13.20
2022-11-29T09:57:14.151Z,12.93
2022-11-29T09:59:48.697Z,12.90
2022-11-29T10:02:21.803Z,13.63
2022-11-29T10:05:01.472Z,13.73
2022-11-29T10:07:46.288Z,13.02
2022-11-29T10:10:22.788Z,11.57
2022-11-29T10:12:56.455Z,11.32
2022-11-29T10:15:27.787Z,11.98
2022-11-29T10:18:03.270Z,11.93
2022-11-29T10:20:39.164Z,11.73
2022-11-29T10:23:21.160Z,11.68
2022-11-29T10:25:50.448Z,12.02
2022-11-29T10:28:20.833Z,12.18
2022-11-29T10:30:48.168Z,11.90
2022-11-29T10:33:26.953Z,11.73
2022-11-29T10:35:59.087Z,11.30
2022-11-29T10:38:33.019Z,10.82
2022-11-29T10:41:13.474Z,10.68
2022-11-29T10:43:43.086Z,10.83
2022-11-29T10:46:18.262Z,10.80
2022-11-29T10:48:44.726Z,11.15
2022-11-29T10:51:18.124Z,11.07
2022-11-29T10:53:46.652Z,10.98
2022-11-29T10:56:31.121Z,10.53
2022-11-29T10:59:00.301Z,10.50
2022-11-29T11:01:28.994Z,12.00
2022-11-29T11:03:57.853Z,12.00
2022-11-29T11:06:42.446Z,11.07
2022-11-29T11:09:24.903Z,10.73
2022-11-29T11:11:57.811Z,11.65
2022-11-29T11:14:28.795Z,11.10
2022-11-29T11:16:55.594Z,11.02
2022-11-29T11:19:28.434Z,11.40
2022-11-29T11:21:56.972Z,16.33
2022-11-29T11:24:41.940Z,13.95
2022-11-29T11:27:08.455Z,12.25
2022-11-29T11:29:40.990Z,11.38
2022-11-29T11:32:19.462Z,10.63
2022-11-29T11:34:58.066Z,10.40
2022-11-29T11:37:30.218Z,9.48
2022-11-29T11:40:00.243Z,9.18
2022-11-29T11:42:40.332Z,10.50
2022-11-29T11:45:10.134Z,8.93
2022-11-29T11:47:42.822Z,8.83
2022-11-29T11:50:36.931Z,7.32
2022-11-29T11:53:06.967Z,6.80
2022-11-29T11:55:37.695Z,7.30
2022-11-29T11:58:13.058Z,7.43
2022-11-29T12:01:04.809Z,7.47
2022-11-29T12:03:45.749Z,7.47
2022-11-29T12:06:31.706Z,8.05
2022-11-29T12:09:33.468Z,8.23
2022-11-29T12:12:25.333Z,8.63
2022-11-29T12:15:04.038Z,8.53
2022-11-29T12:18:13.577Z,8.85
2022-11-29T12:21:03.460Z,9.68
2022-11-29T12:23:45.062Z,12.48
2022-11-29T12:26:13.707Z,7.95
2022-11-29T12:28:46.607Z,8.27
2022-11-29T12:31:16.214Z,9.48
2022-11-29T12:33:57.856Z,8.52
2022-11-29T12:36:43.672Z,6.70
2022-11-29T12:39:23.717Z,6.47
2022-11-29T12:42:06.771Z,6.37
2022-11-29T12:44:52.619Z,6.30
2022-11-29T12:47:38.162Z,6.60
2022-11-29T12:50:46.586Z,6.15
2022-11-29T12:53:28.281Z,6.43
2022-11-29T12:56:16.242Z,6.77
2022-11-29T12:58:49.839Z,7.20
2022-11-29T13:01:51.201Z,6.35
2022-11-29T13:04:29.601Z,7.03
2022-11-29T13:07:03.275Z,6.68
2022-11-29T13:09:50.790Z,6.37
2022-11-29T13:12:36.573Z,6.85
2022-11-29T13:15:35.535Z,6.45
2022-11-29T13:18:18.038Z,8.23
2022-11-29T13:20:52.301Z,6.25
2022-11-29T13:24:07.801Z,5.73
2022-11-29T13:26:34.019Z,5.97
2022-11-29T13:29:02.450Z,6.00
2022-11-29T13:31:29.937Z,6.15
2022-11-29T13:33:56.438Z,6.70
2022-11-29T13:36:28.898Z,6.13
2022-11-29T13:39:10.441Z,6.45
2022-11-29T13:41:49.022Z,5.55
2022-11-29T13:44:27.798Z,6.70
2022-11-29T13:47:15.722Z,6.43
2022-11-29T13:49:58.011Z,6.23
2022-11-29T13:52:42.505Z,6.75
2022-11-29T13:55:12.020Z,6.53
2022-11-29T14:00:44.749Z,8.30
2022-11-29T14:03:26.651Z,7.30
2022-11-29T14:06:13.380Z,7.45
2022-11-29T14:09:19.421Z,7.93
2022-11-29T14:12:01.742Z,6.70
2022-11-29T14:14:34.073Z,6.72
2022-11-29T14:17:06.180Z,6.97
2022-11-29T14:19:34.549Z,7.00
2022-11-29T14:22:01.840Z,7.00
2022-11-29T14:24:37.806Z,7.20
2022-11-29T14:27:07.262Z,9.07
2022-11-29T14:29:55.213Z,8.60
2022-11-29T14:32:34.505Z,9.20
2022-11-29T14:35:09.704Z,8.80
2022-11-29T14:38:13.781Z,8.02
2022-11-29T14:40:40.327Z,8.82
2022-11-29T14:43:34.009Z,8.53
2022-11-29T14:46:31.618Z,8.48
2022-11-29T14:49:03.690Z,17.52
2022-11-29T14:51:32.753Z,18.67
2022-11-29T14:54:15.583Z,13.27
2022-11-29T14:56:45.314Z,11.63
2022-11-29T14:59:51.567Z,11.40
2022-11-29T15:02:32.618Z,14.88
2022-11-29T15:05:13.239Z,13.38
2022-11-29T15:07:44.664Z,11.25
2022-11-29T15:10:34.994Z,10.27
2022-11-29T15:13:03.918Z,9.48
2022-11-29T15:15:38.719Z,11.23
2022-11-29T15:18:26.653Z,10.70
2022-11-29T15:21:25.318Z,9.45
2022-11-29T15:24:01.564Z,10.93
2022-11-29T15:26:28.436Z,10.80
2022-11-29T15:29:13.340Z,29.88
2022-11-29T15:31:42.163Z,12.32
2022-11-29T15:34:29.075Z,16.83
2022-11-29T15:36:55.548Z,11.50
2022-11-29T15:39:26.557Z,18.73
2022-11-29T15:41:53.288Z,16.52
2022-11-29T15:44:22.380Z,21.67
2022-11-29T15:46:48.881Z,13.77
2022-11-29T15:49:34.049Z,10.67
2022-11-29T15:52:07.744Z,10.07
2022-11-29T15:54:41.988Z,9.55
2022-11-29T15:57:15.909Z,9.52
2022-11-29T15:59:52.932Z,9.48
2022-11-29T16:02:21.684Z,14.37
2022-11-29T16:04:51.205Z,16.42
2022-11-29T16:07:19.795Z,13.00
2022-11-29T16:09:54.773Z,10.15
2022-11-29T16:12:21.238Z,12.23
2022-11-29T16:14:56.903Z,11.87
2022-11-29T16:17:31.936Z,11.75
2022-11-29T16:20:13.513Z,12.77
2022-11-29T16:22:39.966Z,11.90
2022-11-29T16:25:15.868Z,15.73
2022-11-29T16:27:43.009Z,13.03
2022-11-29T16:30:24.254Z,12.27
2022-11-29T16:32:55.339Z,17.73
2022-11-29T16:35:28.035Z,18.70
2022-11-29T16:37:54.752Z,13.75
2022-11-29T16:40:35.458Z,12.73
2022-11-29T16:43:21.029Z,12.18
2022-11-29T16:45:47.734Z,14.70
2022-11-29T16:48:29.418Z,13.15
2022-11-29T16:51:10.901Z,12.73
2022-11-29T16:53:42.715Z,13.27
2022-11-29T16:56:14.322Z,12.98
2022-11-29T16:59:20.928Z,16.63
2022-11-29T17:01:31.510Z,17.15
2022-11-29T17:03:59.881Z,14.25
2022-11-29T17:06:27.987Z,17.20
2022-11-29T17:08:56.284Z,13.82
2022-11-29T17:11:23.281Z,13.55
2022-11-29T17:13:50.852Z,12.32
2022-11-29T17:16:20.159Z,12.38
2022-11-29T17:18:47.166Z,13.40
2022-11-29T17:21:31.590Z,13.48
2022-11-29T17:23:58.037Z,14.45
2022-11-29T17:26:24.495Z,27.35
2022-11-29T17:28:52.242Z,18.95
2022-11-29T17:31:21.639Z,18.00
2022-11-29T17:33:48.500Z,19.88
2022-11-29T17:36:17.513Z,20.33
2022-11-29T17:38:45.531Z,26.67
2022-11-29T17:41:14.663Z,28.05
2022-11-29T17:43:41.790Z,39.20
2022-11-29T17:46:12.603Z,29.58
2022-11-29T17:48:39.257Z,23.05
2022-11-29T17:51:17.454Z,19.92
2022-11-29T17:53:50.039Z,18.83
2022-11-29T17:56:19.455Z,20.43
2022-11-29T17:58:46.021Z,21.50
2022-11-29T18:01:15.101Z,16.48
2022-11-29T18:03:43.353Z,15.18
2022-11-29T18:06:19.621Z,16.92
2022-11-29T18:08:50.934Z,22.03
2022-11-29T18:11:20.498Z,19.92
2022-11-29T18:13:47.542Z,36.60
2022-11-29T18:16:17.129Z,20.52
2022-11-29T18:18:44.586Z,13.30
2022-11-29T18:21:12.531Z,11.87
2022-11-29T18:23:43.292Z,12.10
2022-11-29T18:26:15.634Z,17.23
2022-11-29T18:28:43.636Z,16.23
2022-11-29T18:31:12.909Z,15.63
2022-11-29T18:33:41.353Z,16.03
2022-11-29T18:36:12.504Z,21.77
2022-11-29T18:38:40.577Z,20.65
2022-11-29T18:41:21.216Z,17.90
2022-11-29T18:43:48.871Z,19.38
2022-11-29T18:46:19.009Z,18.40
2022-11-29T18:48:47.274Z,19.25
2022-11-29T18:51:16.524Z,19.05
2022-11-29T18:53:44.056Z,22.70
2022-11-29T18:56:16.707Z,16.58
2022-11-29T18:58:44.730Z,12.90
2022-11-29T19:01:14.777Z,12.82
2022-11-29T19:03:44.579Z,19.15
2022-11-29T19:06:16.750Z,15.90
2022-11-29T19:08:43.479Z,21.30
2022-11-29T19:11:21.051Z,24.07
2022-11-29T19:13:51.978Z,22.92
2022-11-29T19:16:19.522Z,20.10
2022-11-29T19:18:45.990Z,16.63
2022-11-29T19:21:15.177Z,16.38
2022-11-29T19:23:43.642Z,19.80
2022-11-29T19:26:14.701Z,14.80
2022-11-29T19:28:43.489Z,14.65
2022-11-29T19:31:11.894Z,13.90
2022-11-29T19:33:40.012Z,13.85
2022-11-29T19:36:08.765Z,11.03
2022-11-29T19:38:36.525Z,13.05
2022-11-29T19:41:13.621Z,13.25
2022-11-29T19:43:40.169Z,13.02
2022-11-29T19:46:08.511Z,11.80
2022-11-29T19:48:35.075Z,11.27
2022-11-29T19:51:02.183Z,15.50
2022-11-29T19:53:29.594Z,16.40
2022-11-29T19:55:56.301Z,16.08
2022-11-29T19:58:22.966Z,18.90
2022-11-29T20:00:49.538Z,16.17
2022-11-29T20:03:16.208Z,17.58
2022-11-29T20:05:42.760Z,19.42
2022-11-29T20:08:09.346Z,16.77
2022-11-29T20:10:35.824Z,14.85
2022-11-29T20:13:02.602Z,13.23
2022-11-29T20:15:29.216Z,12.63
2022-11-29T20:17:55.794Z,14.32
2022-11-29T20:20:22.526Z,14.90
2022-11-29T20:22:48.997Z,16.42
2022-11-29T20:25:15.499Z,39.30
2022-11-29T20:27:42.022Z,57.72
2022-11-29T20:30:10.325Z,38.30
2022-11-29T20:32:37.057Z,21.70
2022-11-29T20:35:03.884Z,20.05
2022-11-29T20:37:43.459Z,11.03
2022-11-29T20:40:15.784Z,11.25
2022-11-29T20:43:03.242Z,11.02
2022-11-29T20:45:30.097Z,10.43
2022-11-29T20:48:17.174Z,11.43
2022-11-29T20:50:51.925Z,10.80
2022-11-29T20:53:18.269Z,11.13
2022-11-29T20:55:47.880Z,11.90
2022-11-29T20:58:15.381Z,9.35
2022-11-29T21:00:42.172Z,10.02
2022-11-29T21:03:08.684Z,10.63
2022-11-29T21:05:37.989Z,10.07
2022-11-29T21:08:04.744Z,11.70
2022-11-29T21:10:31.264Z,12.63
2022-11-29T21:12:58.008Z,12.65
2022-11-29T21:15:24.854Z,12.23
2022-11-29T21:17:51.709Z,13.88
2022-11-29T21:20:22.898Z,13.07
2022-11-29T21:23:19.157Z,15.45
2022-11-29T21:25:58.133Z,11.70
2022-11-29T21:28:32.038Z,10.23
2022-11-29T21:30:58.728Z,10.07
2022-11-29T21:33:25.562Z,10.35
2022-11-29T21:35:55.699Z,9.77
2022-11-29T21:38:25.079Z,9.68
2022-11-29T21:40:51.574Z,16.53
2022-11-29T21:43:18.118Z,32.95
2022-11-29T21:45:47.410Z,24.52
2022-11-29T21:48:32.856Z,13.25
2022-11-29T21:50:59.338Z,10.23
2022-11-29T21:53:26.038Z,8.93
2022-11-29T21:56:00.564Z,9.05
2022-11-29T21:58:29.270Z,9.55
2022-11-29T22:00:55.818Z,9.90
2022-11-29T22:03:22.388Z,9.02
2022-11-29T22:05:48.923Z,9.63
2022-11-29T22:08:15.467Z,10.85
2022-11-29T22:10:41.997Z,11.57
2022-11-29T22:13:08.538Z,11.00
2022-11-29T22:15:35.009Z,12.15
2022-11-29T22:18:01.478Z,13.80
2022-11-29T22:20:27.926Z,11.27
2022-11-29T22:22:58.538Z,11.20
2022-11-29T22:25:25.386Z,10.25
2022-11-29T22:27:51.849Z,10.40
2022-11-29T22:30:18.281Z,11.90
2022-11-29T22:32:44.719Z,10.43
2022-11-29T22:35:11.123Z,10.55
2022-11-29T22:37:37.577Z,10.63
2022-11-29T22:40:05.887Z,10.57
2022-11-29T22:42:32.480Z,9.70
2022-11-29T22:44:58.905Z,10.00
2022-11-29T22:47:25.389Z,9.20
2022-11-29T22:49:57.752Z,11.27
2022-11-29T22:52:24.172Z,10.93
2022-11-29T22:54:50.600Z,10.23
2022-11-29T22:57:17.084Z,11.00
2022-11-29T22:59:43.508Z,11.73
2022-11-29T23:02:09.958Z,11.00
2022-11-29T23:04:36.432Z,10.55
2022-11-29T23:07:02.883Z,10.23
2022-11-29T23:09:29.346Z,10.65
2022-11-29T23:11:56.204Z,11.98
2022-11-29T23:14:23.497Z,10.75
2022-11-29T23:16:50.463Z,11.00
2022-11-29T23:19:17.475Z,9.77
2022-11-29T23:21:45.835Z,11.38
2022-11-29T23:24:13.822Z,10.98
2022-11-29T23:26:43.241Z,10.23
2022-11-29T23:29:12.794Z,9.95
2022-11-29T23:31:39.540Z,10.30
2022-11-29T23:35:25.691Z,9.77
2022-11-29T23:37:52.100Z,9.57
2022-11-29T23:40:18.648Z,10.20
2022-11-29T23:42:47.172Z,9.90
2022-11-29T23:45:13.926Z,9.73
2022-11-29T23:47:40.309Z,8.47
2022-11-29T23:50:07.899Z,10.05
2022-11-29T23:52:34.437Z,8.00
2022-11-29T23:55:00.869Z,8.85
2022-11-29T23:57:29.637Z,9.00
2022-11-29T23:59:56.043Z,9.53
